createdAt,value
2022-08-08T00:00:52.316Z,0
2022-08-08T00:00:53.599Z,0
2022-08-08T00:02:04.166Z,0
2022-08-08T00:02:34.267Z,0
2022-08-08T00:03:34.913Z,0
2022-08-08T00:04:35.602Z,0
2022-08-08T00:05:44.200Z,0
2022-08-08T00:06:38.201Z,0
2022-08-08T00:07:38.796Z,0
2022-08-08T00:08:40.233Z,0
2022-08-08T00:09:41.823Z,0
2022-08-08T00:10:42.472Z,0
2022-08-08T00:11:46.641Z,0
2022-08-08T00:12:48.515Z,0
2022-08-08T00:14:17.250Z,0
2022-08-08T00:14:58.810Z,0
2022-08-08T00:15:57.279Z,0
2022-08-08T00:16:51.026Z,0
2022-08-08T00:18:03.129Z,0
2022-08-08T00:18:54.200Z,0
2022-08-08T00:19:55.122Z,0
2022-08-08T00:20:56.710Z,0
2022-08-08T00:21:57.305Z,0
2022-08-08T00:22:59.055Z,0
2022-08-08T00:23:59.612Z,0
2022-08-08T00:25:00.647Z,0
2022-08-08T00:26:01.263Z,0
2022-08-08T00:27:01.978Z,0
2022-08-08T00:28:03.568Z,0
2022-08-08T00:29:08.107Z,0
2022-08-08T00:30:05.753Z,0
2022-08-08T00:32:07.828Z,0
2022-08-08T00:32:20.055Z,0
2022-08-08T00:33:10.110Z,0
2022-08-08T00:34:18.738Z,0
2022-08-08T00:35:18.574Z,0
2022-08-08T00:36:14.918Z,0
2022-08-08T00:37:16.567Z,0
2022-08-08T00:38:32.028Z,0
2022-08-08T00:41:07.299Z,0
2022-08-08T00:41:09.930Z,0
2022-08-08T00:41:22.276Z,0
2022-08-08T00:42:33.165Z,0
2022-08-08T00:43:25.160Z,0
2022-08-08T00:44:26.669Z,0
2022-08-08T00:45:32.265Z,0
2022-08-08T00:46:32.152Z,0
2022-08-08T00:47:36.842Z,0
2022-08-08T00:48:33.924Z,0
2022-08-08T00:49:33.630Z,0
2022-08-08T00:50:34.225Z,0
2022-08-08T00:51:38.264Z,0
2022-08-08T00:52:39.366Z,0
2022-08-08T00:53:43.710Z,0
2022-08-08T00:54:39.583Z,0
2022-08-08T00:55:52.934Z,0
2022-08-08T00:56:41.878Z,0
2022-08-08T00:57:43.355Z,0
2022-08-08T00:58:54.171Z,0
2022-08-08T00:59:46.841Z,0
2022-08-08T01:00:50.591Z,0
2022-08-08T01:01:49.333Z,0
2022-08-08T01:03:59.402Z,0
2022-08-08T01:04:02.837Z,0
2022-08-08T01:04:53.110Z,0
2022-08-08T01:05:58.621Z,0
2022-08-08T01:07:00.258Z,0
2022-08-08T01:07:57.005Z,0
2022-08-08T01:08:57.488Z,0
2022-08-08T01:09:58.517Z,0
2022-08-08T01:10:59.115Z,0
2022-08-08T01:11:59.712Z,0
2022-08-08T01:13:01.301Z,0
2022-08-08T01:14:01.898Z,0
2022-08-08T01:15:02.494Z,0
2022-08-08T01:16:04.083Z,0
2022-08-08T01:17:05.071Z,0
2022-08-08T01:18:05.665Z,0
2022-08-08T01:19:13.731Z,0
2022-08-08T01:20:07.861Z,0
2022-08-08T01:21:09.453Z,0
2022-08-08T01:22:13.423Z,0
2022-08-08T01:23:55.648Z,0
2022-08-08T01:24:13.859Z,0
2022-08-08T01:25:16.801Z,0
2022-08-08T01:26:16.546Z,0
2022-08-08T01:27:24.110Z,0
2022-08-08T01:28:18.729Z,0
2022-08-08T01:29:23.927Z,0
2022-08-08T01:30:21.908Z,0
2022-08-08T01:32:06.381Z,0
2022-08-08T01:32:24.092Z,0
2022-08-08T01:33:28.081Z,0
2022-08-08T01:34:29.135Z,0
2022-08-08T01:35:30.234Z,0
2022-08-08T01:36:29.452Z,0
2022-08-08T01:37:57.355Z,0
2022-08-08T01:38:31.357Z,0
2022-08-08T01:39:34.965Z,0
2022-08-08T01:40:34.562Z,0
2022-08-08T01:41:38.054Z,0
2022-08-08T01:42:37.688Z,0
2022-08-08T01:43:39.123Z,0
2022-08-08T01:44:39.818Z,0
2022-08-08T01:45:41.406Z,0
2022-08-08T01:46:42.439Z,0
2022-08-08T01:48:14.644Z,0
2022-08-08T01:48:46.196Z,0
2022-08-08T01:49:46.982Z,0
2022-08-08T01:50:50.543Z,0
2022-08-08T01:52:41.203Z,0
2022-08-08T01:54:03.665Z,0
2022-08-08T01:55:15.540Z,0
2022-08-08T01:55:27.051Z,0
2022-08-08T01:56:29.740Z,0
2022-08-08T01:56:57.146Z,0
2022-08-08T01:58:11.597Z,0
2022-08-08T01:58:59.330Z,0
2022-08-08T02:00:03.369Z,0
2022-08-08T02:01:02.576Z,0
2022-08-08T02:02:05.055Z,0
2022-08-08T02:03:07.383Z,0
2022-08-08T02:04:06.291Z,0
2022-08-08T02:05:07.879Z,0
2022-08-08T02:06:08.474Z,0
2022-08-08T02:07:10.061Z,0
2022-08-08T02:08:11.650Z,0
2022-08-08T02:09:17.423Z,0
2022-08-08T02:10:14.312Z,0
2022-08-08T02:11:23.503Z,0
2022-08-08T02:12:18.354Z,0
2022-08-08T02:13:54.225Z,0
2022-08-08T02:14:20.615Z,0
2022-08-08T02:15:21.277Z,0
2022-08-08T02:16:21.845Z,0
2022-08-08T02:17:22.577Z,0
2022-08-08T02:18:23.174Z,0
2022-08-08T02:19:57.624Z,0
2022-08-08T02:21:00.668Z,0
2022-08-08T02:21:28.588Z,0
2022-08-08T02:22:31.366Z,0
2022-08-08T02:23:31.920Z,0
2022-08-08T02:24:32.495Z,0
2022-08-08T02:25:47.137Z,0
2022-08-08T02:26:35.668Z,0
2022-08-08T02:27:42.196Z,0
2022-08-08T02:28:36.890Z,0
2022-08-08T02:29:41.605Z,0
2022-08-08T02:30:38.093Z,0
2022-08-08T02:31:58.079Z,0
2022-08-08T02:32:41.270Z,0
2022-08-08T02:34:07.983Z,0
2022-08-08T02:35:07.680Z,0
2022-08-08T02:36:04.218Z,0
2022-08-08T02:36:46.626Z,0
2022-08-08T02:37:53.077Z,0
2022-08-08T02:38:48.998Z,0
2022-08-08T02:39:58.542Z,0
2022-08-08T02:40:52.480Z,0
2022-08-08T02:41:59.097Z,0
2022-08-08T02:44:35.221Z,0
2022-08-08T02:44:36.798Z,0
2022-08-08T02:44:59.151Z,0
2022-08-08T02:45:58.949Z,0
2022-08-08T02:46:59.544Z,0
2022-08-08T02:48:00.140Z,0
2022-08-08T02:49:00.752Z,0
2022-08-08T02:50:02.346Z,0
2022-08-08T02:51:02.938Z,0
2022-08-08T02:52:34.602Z,0
2022-08-08T02:53:06.116Z,0
2022-08-08T02:54:06.709Z,0
2022-08-08T02:55:10.175Z,0
2022-08-08T02:56:09.020Z,0
2022-08-08T02:57:12.256Z,0
2022-08-08T02:58:15.034Z,0
2022-08-08T02:59:26.224Z,0
2022-08-08T03:00:27.199Z,0
2022-08-08T03:01:16.948Z,0
2022-08-08T03:02:20.505Z,0
2022-08-08T03:05:00.355Z,0
2022-08-08T03:05:05.355Z,0
2022-08-08T03:05:21.314Z,0
2022-08-08T03:06:34.202Z,0
2022-08-08T03:07:23.495Z,0
2022-08-08T03:08:24.089Z,0
2022-08-08T03:09:24.686Z,0
2022-08-08T03:10:32.438Z,0
2022-08-08T03:11:47.848Z,0
2022-08-08T03:12:36.403Z,0
2022-08-08T03:15:54.025Z,0
2022-08-08T03:15:57.620Z,0
2022-08-08T03:16:01.861Z,0
2022-08-08T03:16:35.658Z,0
2022-08-08T03:17:39.580Z,0
2022-08-08T03:18:39.232Z,0
2022-08-08T03:19:39.591Z,0
2022-08-08T03:20:41.180Z,0
2022-08-08T03:21:58.210Z,0
2022-08-08T03:22:43.934Z,0
2022-08-08T03:23:59.274Z,0
2022-08-08T03:24:45.133Z,0
2022-08-08T03:25:46.725Z,0
2022-08-08T03:26:48.309Z,0
2022-08-08T03:27:49.310Z,0
2022-08-08T03:28:51.461Z,0
2022-08-08T03:29:56.119Z,0
2022-08-08T03:31:22.778Z,0
2022-08-08T03:32:05.773Z,0
2022-08-08T03:32:58.835Z,0
2022-08-08T03:34:00.904Z,0
2022-08-08T03:35:00.015Z,0
2022-08-08T03:36:00.951Z,0
2022-08-08T03:37:01.536Z,0
2022-08-08T03:38:58.349Z,0
2022-08-08T03:39:14.341Z,0
2022-08-08T03:40:06.366Z,0
2022-08-08T03:42:03.932Z,0
2022-08-08T03:42:27.196Z,0
2022-08-08T03:43:16.750Z,5
2022-08-08T03:44:12.657Z,5
2022-08-08T03:46:05.706Z,5
2022-08-08T03:46:15.838Z,5
2022-08-08T03:47:20.268Z,5
2022-08-08T03:48:21.156Z,5
2022-08-08T03:49:57.160Z,11
2022-08-08T03:50:24.870Z,11
2022-08-08T03:51:40.069Z,11
2022-08-08T03:52:22.438Z,11
2022-08-08T03:53:42.583Z,16
2022-08-08T03:54:41.590Z,16
2022-08-08T03:55:55.922Z,16
2022-08-08T03:56:31.337Z,22
2022-08-08T03:58:34.049Z,22
2022-08-08T03:58:37.902Z,22
2022-08-08T03:59:33.580Z,28
2022-08-08T04:00:35.172Z,28
2022-08-08T04:02:02.381Z,28
2022-08-08T04:02:47.838Z,33
2022-08-08T04:03:59.107Z,33
2022-08-08T04:04:40.594Z,39
2022-08-08T04:05:47.964Z,39
2022-08-08T04:06:43.745Z,45
2022-08-08T04:07:45.341Z,45
2022-08-08T04:08:46.294Z,45
2022-08-08T04:10:03.322Z,50
2022-08-08T04:10:48.492Z,50
2022-08-08T04:11:58.801Z,56
2022-08-08T04:12:51.672Z,56
2022-08-08T04:14:03.705Z,61
2022-08-08T04:14:53.867Z,61
2022-08-08T04:16:05.354Z,67
2022-08-08T04:16:57.050Z,67
2022-08-08T04:17:59.039Z,67
2022-08-08T04:18:59.244Z,73
2022-08-08T04:20:02.105Z,73
2022-08-08T04:21:02.079Z,78
2022-08-08T04:22:03.672Z,84
2022-08-08T04:23:07.134Z,84
2022-08-08T04:24:18.938Z,90
2022-08-08T04:25:07.462Z,90
2022-08-08T04:26:09.440Z,95
2022-08-08T04:27:10.611Z,95
2022-08-08T04:28:37.359Z,101
2022-08-08T04:29:12.840Z,101
2022-08-08T04:30:18.258Z,106
2022-08-08T04:31:56.663Z,112
2022-08-08T04:32:40.926Z,112
2022-08-08T04:33:18.232Z,118
2022-08-08T04:34:18.834Z,118
2022-08-08T04:35:22.512Z,123
2022-08-08T04:36:22.024Z,123
2022-08-08T04:37:31.771Z,129
2022-08-08T04:38:25.213Z,129
2022-08-08T04:40:03.506Z,135
2022-08-08T04:40:27.921Z,140
2022-08-08T04:41:36.823Z,140
2022-08-08T04:42:30.231Z,146
2022-08-08T04:43:31.799Z,146
2022-08-08T04:44:33.851Z,151
2022-08-08T04:45:33.889Z,151
2022-08-08T04:46:34.469Z,157
2022-08-08T04:47:36.731Z,157
2022-08-08T04:48:36.661Z,163
2022-08-08T04:50:00.715Z,163
2022-08-08T04:50:40.170Z,168
2022-08-08T04:51:55.389Z,168
2022-08-08T04:52:42.041Z,174
2022-08-08T04:54:27.412Z,174
2022-08-08T04:54:45.230Z,180
2022-08-08T04:55:55.322Z,180
2022-08-08T04:56:48.420Z,185
2022-08-08T04:57:49.369Z,185
2022-08-08T04:58:50.962Z,191
2022-08-08T04:59:51.563Z,191
2022-08-08T05:00:53.028Z,196
2022-08-08T05:01:53.710Z,196
2022-08-08T05:02:55.257Z,202
2022-08-08T05:04:10.767Z,202
2022-08-08T05:04:59.596Z,202
2022-08-08T05:05:59.007Z,208
2022-08-08T05:07:00.601Z,208
2022-08-08T05:08:02.862Z,213
2022-08-08T05:09:02.689Z,213
2022-08-08T05:10:03.410Z,219
2022-08-08T05:11:04.377Z,219
2022-08-08T05:12:04.975Z,219
2022-08-08T05:13:17.553Z,225
2022-08-08T05:14:08.160Z,225
2022-08-08T05:15:08.761Z,230
2022-08-08T05:16:52.196Z,230
2022-08-08T05:17:11.948Z,230
2022-08-08T05:18:13.546Z,236
2022-08-08T05:20:11.365Z,236
2022-08-08T05:20:15.265Z,236
2022-08-08T05:21:15.915Z,241
2022-08-08T05:22:17.414Z,241
2022-08-08T05:23:18.125Z,247
2022-08-08T05:24:18.728Z,247
2022-08-08T05:25:21.472Z,247
2022-08-08T05:26:21.918Z,253
2022-08-08T05:27:23.511Z,253
2022-08-08T05:28:48.246Z,258
2022-08-08T05:29:29.104Z,258
2022-08-08T05:30:28.769Z,258
2022-08-08T05:32:05.604Z,264
2022-08-08T05:32:36.169Z,264
2022-08-08T05:33:44.102Z,264
2022-08-08T05:34:34.144Z,270
2022-08-08T05:35:35.745Z,270
2022-08-08T05:36:36.358Z,270
2022-08-08T05:37:51.923Z,275
2022-08-08T05:38:38.567Z,275
2022-08-08T05:39:39.285Z,275
2022-08-08T05:40:39.849Z,281
2022-08-08T05:41:55.689Z,275
2022-08-08T05:42:42.277Z,281
2022-08-08T05:44:03.468Z,286
2022-08-08T05:44:44.564Z,286
2022-08-08T05:45:53.313Z,292
2022-08-08T05:46:47.504Z,298
2022-08-08T05:48:00.267Z,303
2022-08-08T05:48:52.468Z,303
2022-08-08T05:49:55.825Z,309
2022-08-08T05:50:59.158Z,315
2022-08-08T05:51:54.742Z,315
2022-08-08T05:52:55.341Z,320
2022-08-08T05:54:28.828Z,326
2022-08-08T05:55:03.215Z,331
2022-08-08T05:56:11.115Z,331
2022-08-08T05:57:00.721Z,331
2022-08-08T05:58:06.169Z,337
2022-08-08T05:59:03.975Z,337
2022-08-08T06:00:23.161Z,343
2022-08-08T06:01:06.118Z,348
2022-08-08T06:02:07.712Z,354
2022-08-08T06:03:08.376Z,360
2022-08-08T06:04:13.904Z,365
2022-08-08T06:05:35.673Z,376
2022-08-08T06:06:12.138Z,382
2022-08-08T06:07:13.731Z,388
2022-08-08T06:08:33.504Z,399
2022-08-08T06:09:41.836Z,410
2022-08-08T06:10:24.646Z,416
2022-08-08T06:11:20.104Z,421
2022-08-08T06:12:29.979Z,433
2022-08-08T06:13:23.575Z,433
2022-08-08T06:14:24.886Z,438
2022-08-08T06:15:50.020Z,450
2022-08-08T06:16:30.552Z,455
2022-08-08T06:17:32.103Z,461
2022-08-08T06:18:29.705Z,466
2022-08-08T06:19:35.277Z,472
2022-08-08T06:20:32.218Z,478
2022-08-08T06:21:48.830Z,489
2022-08-08T06:22:35.413Z,495
2022-08-08T06:23:52.886Z,500
2022-08-08T06:24:37.592Z,506
2022-08-08T06:26:35.697Z,517
2022-08-08T06:26:44.221Z,523
2022-08-08T06:27:47.599Z,528
2022-08-08T06:28:43.971Z,540
2022-08-08T06:29:56.895Z,556
2022-08-08T06:30:47.164Z,568
2022-08-08T06:31:52.575Z,573
2022-08-08T06:32:50.147Z,585
2022-08-08T06:34:25.477Z,596
2022-08-08T06:35:12.061Z,607
2022-08-08T06:36:07.864Z,613
2022-08-08T06:36:54.777Z,624
2022-08-08T06:37:56.117Z,635
2022-08-08T06:38:56.972Z,646
2022-08-08T06:40:00.552Z,658
2022-08-08T06:40:59.183Z,669
2022-08-08T06:41:59.783Z,680
2022-08-08T06:43:01.380Z,691
2022-08-08T06:44:01.980Z,697
2022-08-08T06:45:05.428Z,714
2022-08-08T06:46:04.728Z,720
2022-08-08T06:47:06.322Z,736
2022-08-08T06:48:06.921Z,742
2022-08-08T06:49:11.073Z,770
2022-08-08T06:50:12.785Z,776
2022-08-08T06:51:11.707Z,793
2022-08-08T06:52:16.026Z,804
2022-08-08T06:53:20.163Z,815
2022-08-08T06:54:17.512Z,838
2022-08-08T06:55:18.084Z,843
2022-08-08T06:56:18.687Z,855
2022-08-08T06:57:20.285Z,871
2022-08-08T06:58:20.884Z,883
2022-08-08T06:59:21.487Z,894
2022-08-08T07:00:29.900Z,916
2022-08-08T07:02:16.476Z,928
2022-08-08T07:02:28.767Z,916
2022-08-08T07:03:52.459Z,911
2022-08-08T07:04:39.478Z,900
2022-08-08T07:05:29.918Z,871
2022-08-08T07:06:30.707Z,849
2022-08-08T07:07:32.739Z,860
2022-08-08T07:08:33.379Z,871
2022-08-08T07:09:45.286Z,905
2022-08-08T07:10:35.595Z,961
2022-08-08T07:11:51.174Z,1023
2022-08-08T07:12:38.788Z,1068
2022-08-08T07:13:39.392Z,1085
2022-08-08T07:14:40.076Z,1068
2022-08-08T07:16:04.465Z,900
2022-08-08T07:16:51.018Z,905
2022-08-08T07:18:02.041Z,922
2022-08-08T07:18:46.042Z,1068
2022-08-08T07:19:47.006Z,1125
2022-08-08T07:20:50.756Z,1170
2022-08-08T07:21:49.203Z,1198
2022-08-08T07:22:50.724Z,1203
2022-08-08T07:24:01.099Z,1226
2022-08-08T07:24:51.958Z,1237
2022-08-08T07:25:54.788Z,1254
2022-08-08T07:26:55.123Z,1271
2022-08-08T07:28:02.482Z,1288
2022-08-08T07:28:58.315Z,1293
2022-08-08T07:30:11.444Z,1310
2022-08-08T07:31:01.505Z,1327
2022-08-08T07:32:02.107Z,1338
2022-08-08T07:33:03.065Z,1361
2022-08-08T07:34:03.972Z,1085
2022-08-08T07:35:06.219Z,1417
2022-08-08T07:36:07.161Z,1451
2022-08-08T07:37:11.954Z,1479
2022-08-08T07:38:18.512Z,1490
2022-08-08T07:39:13.392Z,1507
2022-08-08T07:40:11.567Z,1513
2022-08-08T07:41:23.722Z,1530
2022-08-08T07:42:18.929Z,1530
2022-08-08T07:43:16.325Z,1524
2022-08-08T07:44:37.457Z,1524
2022-08-08T07:45:18.525Z,1535
2022-08-08T07:46:30.253Z,1563
2022-08-08T07:47:38.615Z,1603
2022-08-08T07:48:22.333Z,1653
2022-08-08T07:49:23.931Z,1704
2022-08-08T07:50:24.738Z,1738
2022-08-08T07:51:45.042Z,1760
2022-08-08T07:52:27.214Z,1800
2022-08-08T07:54:01.906Z,1833
2022-08-08T07:54:29.430Z,1850
2022-08-08T07:55:30.034Z,1884
2022-08-08T07:56:36.198Z,1906
2022-08-08T07:57:36.216Z,1935
2022-08-08T07:58:34.818Z,1974
2022-08-08T07:59:37.880Z,2013
2022-08-08T08:00:37.584Z,2041
2022-08-08T08:02:36.188Z,2019
2022-08-08T08:02:41.788Z,1985
2022-08-08T08:03:43.669Z,1951
2022-08-08T08:04:42.950Z,1935
2022-08-08T08:05:43.856Z,1912
2022-08-08T08:06:45.449Z,1901
2022-08-08T08:07:46.473Z,1906
2022-08-08T08:08:50.241Z,1951
2022-08-08T08:09:49.266Z,1980
2022-08-08T08:10:49.869Z,2036
2022-08-08T08:11:53.637Z,2115
2022-08-08T08:12:52.081Z,2193
2022-08-08T08:14:07.563Z,2238
2022-08-08T08:14:54.295Z,2244
2022-08-08T08:15:55.893Z,2227
2022-08-08T08:16:56.498Z,2193
2022-08-08T08:17:57.378Z,2171
2022-08-08T08:18:57.977Z,2160
2022-08-08T08:19:58.580Z,2154
2022-08-08T08:20:59.183Z,2131
2022-08-08T08:22:00.778Z,2103
2022-08-08T08:23:01.379Z,2109
2022-08-08T08:24:02.845Z,2131
2022-08-08T08:25:08.108Z,2188
2022-08-08T08:26:05.225Z,2238
2022-08-08T08:27:08.444Z,2278
2022-08-08T08:28:09.467Z,2311
2022-08-08T08:29:09.019Z,2345
2022-08-08T08:30:10.614Z,2368
2022-08-08T08:31:11.238Z,2418
2022-08-08T08:32:11.842Z,2441
2022-08-08T08:33:12.454Z,2458
2022-08-08T08:34:13.059Z,2458
2022-08-08T08:35:15.353Z,2418
2022-08-08T08:36:20.195Z,2345
2022-08-08T08:37:20.316Z,2311
2022-08-08T08:38:19.092Z,2295
2022-08-08T08:39:22.912Z,2300
2022-08-08T08:40:21.657Z,2362
2022-08-08T08:41:23.930Z,2458
2022-08-08T08:42:29.254Z,2520
2022-08-08T08:43:26.790Z,2565
2022-08-08T08:44:28.980Z,2621
2022-08-08T08:45:28.455Z,2666
2022-08-08T08:46:29.060Z,2761
2022-08-08T08:47:33.832Z,2851
2022-08-08T08:48:31.260Z,2885
2022-08-08T08:49:33.966Z,2851
2022-08-08T08:50:35.183Z,2823
2022-08-08T08:51:35.226Z,2790
2022-08-08T08:52:35.844Z,2756
2022-08-08T08:53:56.360Z,2716
2022-08-08T08:54:38.620Z,2705
2022-08-08T08:55:39.980Z,2649
2022-08-08T08:56:40.257Z,2610
2022-08-08T08:57:41.686Z,2615
2022-08-08T08:58:43.288Z,2621
2022-08-08T09:00:00.126Z,2655
2022-08-08T09:01:04.957Z,2677
2022-08-08T09:01:45.647Z,2711
2022-08-08T09:02:46.403Z,2745
2022-08-08T09:03:50.911Z,2756
2022-08-08T09:04:50.062Z,2733
2022-08-08T09:05:54.836Z,2745
2022-08-08T09:06:51.571Z,2925
2022-08-08T09:08:18.477Z,3155
2022-08-08T09:08:53.766Z,3363
2022-08-08T09:09:55.045Z,3386
2022-08-08T09:10:56.401Z,3352
2022-08-08T09:12:02.091Z,3313
2022-08-08T09:12:59.591Z,3285
2022-08-08T09:14:00.220Z,3251
2022-08-08T09:15:01.140Z,3189
2022-08-08T09:16:03.913Z,3121
2022-08-08T09:17:11.613Z,3065
2022-08-08T09:18:03.984Z,3015
2022-08-08T09:19:05.536Z,3020
2022-08-08T09:22:02.433Z,3026
2022-08-08T09:22:02.959Z,3009
2022-08-08T09:22:09.344Z,2970
2022-08-08T09:23:10.594Z,2919
2022-08-08T09:24:13.560Z,2874
2022-08-08T09:25:13.129Z,2801
2022-08-08T09:26:14.727Z,2795
2022-08-08T09:27:55.743Z,2868
2022-08-08T09:28:35.340Z,2908
2022-08-08T09:29:22.223Z,2975
2022-08-08T09:30:19.990Z,3082
2022-08-08T09:31:19.784Z,3183
2022-08-08T09:32:21.380Z,3251
2022-08-08T09:34:16.163Z,3268
2022-08-08T09:34:34.120Z,3251
2022-08-08T09:35:24.671Z,3144
2022-08-08T09:36:25.808Z,3060
2022-08-08T09:37:39.571Z,3037
2022-08-08T09:38:29.004Z,3026
2022-08-08T09:39:29.621Z,3020
2022-08-08T09:40:43.949Z,2998
2022-08-08T09:41:33.548Z,3003
2022-08-08T09:42:33.413Z,3026
2022-08-08T09:43:40.813Z,3054
2022-08-08T09:44:36.605Z,3065
2022-08-08T09:46:00.704Z,3093
2022-08-08T09:46:39.068Z,3155
2022-08-08T09:48:09.809Z,3273
2022-08-08T09:48:42.786Z,3375
2022-08-08T09:49:49.645Z,3470
2022-08-08T09:50:50.276Z,3588
2022-08-08T09:52:06.531Z,3740
2022-08-08T09:52:58.442Z,3819
2022-08-08T09:54:01.270Z,3757
2022-08-08T09:54:50.864Z,3628
2022-08-08T09:56:05.728Z,3504
2022-08-08T09:56:52.088Z,3313
2022-08-08T09:57:55.876Z,3223
2022-08-08T09:58:54.289Z,3234
2022-08-08T10:00:28.745Z,3223
2022-08-08T10:00:57.519Z,3150
2022-08-08T10:02:03.007Z,3048
2022-08-08T10:02:59.697Z,2986
2022-08-08T10:04:01.938Z,3026
2022-08-08T10:05:00.965Z,3105
2022-08-08T10:06:02.593Z,3240
2022-08-08T10:07:07.432Z,3375
2022-08-08T10:08:04.764Z,3453
2022-08-08T10:09:08.406Z,3515
2022-08-08T10:10:07.957Z,3616
2022-08-08T10:12:22.419Z,3768
2022-08-08T10:12:27.833Z,3864
2022-08-08T10:13:14.741Z,3965
2022-08-08T10:14:28.030Z,4016
2022-08-08T10:15:18.712Z,3954
2022-08-08T10:16:16.548Z,3898
2022-08-08T10:17:56.062Z,3915
2022-08-08T10:18:22.338Z,3830
2022-08-08T10:19:20.361Z,3740
2022-08-08T10:20:25.960Z,3656
2022-08-08T10:21:32.904Z,3656
2022-08-08T10:22:24.257Z,3695
2022-08-08T10:23:42.401Z,3735
2022-08-08T10:24:29.650Z,3768
2022-08-08T10:25:28.057Z,3796
2022-08-08T10:26:30.773Z,3723
2022-08-08T10:27:34.415Z,3594
2022-08-08T10:28:31.877Z,3436
2022-08-08T10:29:44.015Z,3313
2022-08-08T10:31:00.247Z,3217
2022-08-08T10:31:47.293Z,3133
2022-08-08T10:32:37.774Z,3082
2022-08-08T10:34:18.836Z,3048
2022-08-08T10:34:40.324Z,3060
2022-08-08T10:36:12.531Z,3105
2022-08-08T10:36:42.525Z,3189
2022-08-08T10:37:43.375Z,3273
2022-08-08T10:38:43.999Z,3380
2022-08-08T10:39:53.789Z,3397
2022-08-08T10:40:46.225Z,3470
2022-08-08T10:41:58.879Z,3487
2022-08-08T10:42:48.420Z,3504
2022-08-08T10:43:49.025Z,3566
2022-08-08T10:44:50.360Z,3515
2022-08-08T10:45:56.302Z,3690
2022-08-08T10:46:52.553Z,3729
2022-08-08T10:47:55.277Z,3695
2022-08-08T10:48:58.824Z,3588
2022-08-08T10:50:02.220Z,3498
2022-08-08T10:50:57.951Z,3459
2022-08-08T10:51:59.013Z,3453
2022-08-08T10:53:00.613Z,3453
2022-08-08T10:54:02.330Z,3459
2022-08-08T10:55:06.388Z,3583
2022-08-08T10:56:03.434Z,3830
2022-08-08T10:57:05.630Z,4106
2022-08-08T10:58:06.678Z,4342
2022-08-08T10:59:07.232Z,4505
2022-08-08T11:00:08.214Z,4584
2022-08-08T11:01:10.768Z,4623
2022-08-08T11:02:09.503Z,4680
2022-08-08T11:03:10.117Z,4696
2022-08-08T11:04:11.810Z,4640
2022-08-08T11:05:14.950Z,4516
2022-08-08T11:06:14.126Z,4325
2022-08-08T11:08:30.002Z,4230
2022-08-08T11:08:38.498Z,4297
2022-08-08T11:09:21.720Z,4376
2022-08-08T11:10:28.619Z,4398
2022-08-08T11:12:00.788Z,4488
2022-08-08T11:12:22.711Z,4505
2022-08-08T11:13:28.870Z,4539
2022-08-08T11:14:26.407Z,4595
2022-08-08T11:15:30.490Z,4629
2022-08-08T11:16:32.421Z,4612
2022-08-08T11:17:58.266Z,4488
2022-08-08T11:18:31.651Z,4488
2022-08-08T11:19:33.247Z,4308
2022-08-08T11:20:34.024Z,4460
2022-08-08T11:21:35.742Z,4612
2022-08-08T11:22:37.216Z,4708
2022-08-08T11:23:38.404Z,4685
2022-08-08T11:24:39.008Z,4696
2022-08-08T11:25:51.858Z,4584
2022-08-08T11:26:53.874Z,4381
2022-08-08T11:27:44.572Z,4269
2022-08-08T11:28:44.431Z,4185
2022-08-08T11:30:18.720Z,4185
2022-08-08T11:30:50.487Z,4291
2022-08-08T11:31:48.592Z,4353
2022-08-08T11:32:49.152Z,4494
2022-08-08T11:33:52.994Z,4725
2022-08-08T11:35:10.504Z,4837
2022-08-08T11:35:51.988Z,4933
2022-08-08T11:36:53.110Z,5017
2022-08-08T11:38:39.129Z,5090
2022-08-08T11:38:56.315Z,5141
2022-08-08T11:39:57.934Z,5113
2022-08-08T11:40:57.533Z,4978
2022-08-08T11:41:58.138Z,4747
2022-08-08T11:42:58.743Z,4528
2022-08-08T11:43:59.348Z,4365
2022-08-08T11:45:00.947Z,4230
2022-08-08T11:46:13.413Z,4173
2022-08-08T11:47:03.151Z,4111
2022-08-08T11:48:05.461Z,4185
2022-08-08T11:49:06.344Z,4297
2022-08-08T11:50:10.051Z,4381
2022-08-08T11:51:38.355Z,4449
2022-08-08T11:52:18.335Z,4494
2022-08-08T11:53:11.757Z,4500
2022-08-08T11:54:31.872Z,4590
2022-08-08T11:55:15.486Z,4680
2022-08-08T11:56:15.575Z,4730
2022-08-08T11:57:16.876Z,4708
2022-08-08T11:58:17.711Z,4623
2022-08-08T11:59:19.308Z,4556
2022-08-08T12:00:20.905Z,4522
2022-08-08T12:01:21.518Z,4505
2022-08-08T12:02:33.711Z,4438
2022-08-08T12:03:24.802Z,4381
2022-08-08T12:04:26.305Z,4331
2022-08-08T12:05:27.903Z,4246
2022-08-08T12:06:28.524Z,4196
2022-08-08T12:07:29.149Z,4162
2022-08-08T12:08:30.746Z,4123
2022-08-08T12:09:57.061Z,4201
2022-08-08T12:10:33.581Z,4314
2022-08-08T12:11:34.467Z,4410
2022-08-08T12:12:36.066Z,4516
2022-08-08T12:14:02.970Z,4612
2022-08-08T12:14:38.268Z,4663
2022-08-08T12:15:42.474Z,4629
2022-08-08T12:16:47.156Z,4516
2022-08-08T12:17:50.935Z,4449
2022-08-08T12:18:43.681Z,4286
2022-08-08T12:19:51.512Z,4151
2022-08-08T12:20:45.974Z,3948
2022-08-08T12:21:58.586Z,3796
2022-08-08T12:22:48.630Z,3735
2022-08-08T12:24:00.222Z,3757
2022-08-08T12:24:56.009Z,3791
2022-08-08T12:25:56.799Z,3881
2022-08-08T12:26:58.376Z,3960
2022-08-08T12:27:59.168Z,4044
2022-08-08T12:28:58.383Z,4173
2022-08-08T12:29:59.004Z,4331
2022-08-08T12:30:59.591Z,4438
2022-08-08T12:32:00.194Z,4449
2022-08-08T12:33:01.792Z,4426
2022-08-08T12:34:03.510Z,4432
2022-08-08T12:35:13.395Z,4415
2022-08-08T12:36:05.660Z,4398
2022-08-08T12:37:08.558Z,4381
2022-08-08T12:38:06.907Z,4387
2022-08-08T12:39:07.588Z,4291
2022-08-08T12:40:09.157Z,1653
2022-08-08T12:41:26.975Z,3549
2022-08-08T12:42:20.953Z,1704
2022-08-08T12:43:13.899Z,1670
2022-08-08T12:44:14.514Z,1513
2022-08-08T12:45:54.930Z,4021
2022-08-08T12:46:19.275Z,4561
2022-08-08T12:47:18.334Z,4663
2022-08-08T12:48:36.380Z,4438
2022-08-08T12:49:24.961Z,3948
2022-08-08T12:50:22.002Z,5062
2022-08-08T12:51:23.599Z,5158
2022-08-08T12:52:28.867Z,5028
2022-08-08T12:53:30.288Z,4933
2022-08-08T12:54:27.416Z,4927
2022-08-08T12:55:31.937Z,5062
2022-08-08T12:56:29.634Z,5090
2022-08-08T12:57:31.306Z,4995
2022-08-08T12:58:31.850Z,5051
2022-08-08T12:59:44.832Z,4989
2022-08-08T13:00:39.384Z,4955
2022-08-08T13:01:36.789Z,5006
2022-08-08T13:02:36.289Z,4938
2022-08-08T13:03:36.956Z,4916
2022-08-08T13:04:37.532Z,4803
2022-08-08T13:06:03.262Z,4747
2022-08-08T13:06:39.733Z,4629
2022-08-08T13:08:03.711Z,4460
2022-08-08T13:08:53.210Z,4325
2022-08-08T13:10:02.059Z,4196
2022-08-08T13:10:55.372Z,4151
2022-08-08T13:12:27.181Z,4252
2022-08-08T13:12:48.460Z,4303
2022-08-08T13:13:47.985Z,4505
2022-08-08T13:14:53.443Z,4635
2022-08-08T13:15:54.763Z,4618
2022-08-08T13:16:52.778Z,4612
2022-08-08T13:18:10.777Z,4573
2022-08-08T13:19:00.540Z,4545
2022-08-08T13:20:06.234Z,4500
2022-08-08T13:20:58.041Z,4415
2022-08-08T13:22:04.589Z,4246
2022-08-08T13:23:30.684Z,4100
2022-08-08T13:24:01.852Z,4021
2022-08-08T13:25:02.455Z,4033
2022-08-08T13:26:12.637Z,4145
2022-08-08T13:27:04.726Z,4348
2022-08-08T13:28:05.330Z,4511
2022-08-08T13:29:05.935Z,4674
2022-08-08T13:30:06.765Z,4713
2022-08-08T13:31:07.377Z,4775
2022-08-08T13:32:10.789Z,4848
2022-08-08T13:33:09.768Z,4888
2022-08-08T13:34:11.856Z,2092
2022-08-08T13:35:24.881Z,3262
2022-08-08T13:36:13.821Z,2818
2022-08-08T13:37:27.573Z,1940
2022-08-08T13:38:16.029Z,1276
2022-08-08T13:39:17.523Z,1271
2022-08-08T13:40:27.499Z,1366
2022-08-08T13:41:19.853Z,1400
2022-08-08T13:42:21.447Z,2598
2022-08-08T13:43:22.054Z,5349
2022-08-08T13:44:23.650Z,4972
2022-08-08T13:45:25.249Z,2036
2022-08-08T13:46:28.758Z,1310
2022-08-08T13:47:28.338Z,1254
2022-08-08T13:48:28.943Z,1248
2022-08-08T13:50:36.845Z,1378
2022-08-08T13:50:39.345Z,1248
2022-08-08T13:51:37.552Z,1485
2022-08-08T13:52:37.775Z,4280
2022-08-08T13:53:36.196Z,4365
2022-08-08T13:54:36.554Z,4381
2022-08-08T13:55:38.854Z,4263
2022-08-08T13:57:00.237Z,4117
2022-08-08T13:57:46.441Z,3206
2022-08-08T13:58:41.964Z,3892
2022-08-08T13:59:47.886Z,3982
2022-08-08T14:00:45.117Z,4123
2022-08-08T14:01:56.652Z,4218
2022-08-08T14:02:46.980Z,4297
2022-08-08T14:03:52.847Z,4308
2022-08-08T14:04:52.686Z,4336